Greenwood, South Dakota
Current Conditions -  °F | °C
As of 6:55 PM on Saturday 22 Nov 2014 (Local Time) from KYKN Reporting Station
Clear Clear  
Wind Chill:   Ceiling: Unl
Heat Index:   Visibility: 10mi
Dew Point:   Wind: 8mph
Humidity: 71%   Direction: 160°SSE
Pressure: 29.49"   Gusts: NA
Location:  43.0908°N, 98.2525°W
Report Text: KYKN 230055Z AUTO 16007KT 10SM CLR 07/02 A2949 RMK AO1
Loading
Personal Weather Stations






























Interactive Weather Map New forecast layout! Learn more

10-Day Weather Forecast

Advertisements
Track Severe Weather on mobile